Time;durP1;ratioP1;P1;durP2;ratioP2;P2;SDS_P1;SDS_P2;PMS_P1;PMS_P2;Temp;Humidity;BMP_temperature;BMP_pressure;BME280_temperature;BME280_humidity;BME280_pressure;Samples;Min_cycle;Max_cycle;Signal;HPM_P1;HPM_P2
2024/01/07 00:01:50;;;;;;;0.70;0.70;;;8.80;99.90;;;;;;10490927;28;21008;-77
2024/01/07 00:06:54;;;;;;;0.50;0.50;;;8.80;99.90;;;;;;10501551;28;20192;-77
2024/01/07 00:11:56;;;;;;;0.70;0.70;;;8.80;99.90;;;;;;10473304;28;20231;-78
2024/01/07 00:16:59;;;;;;;0.53;0.53;;;8.80;99.90;;;;;;10488858;28;20228;-77
2024/01/07 00:22:02;;;;;;;0.70;0.70;;;8.80;99.90;;;;;;10489862;28;20220;-77
2024/01/07 00:27:05;;;;;;;0.70;0.70;;;8.80;99.90;;;;;;10491921;28;20271;-76
2024/01/07 00:32:08;;;;;;;0.50;0.50;;;8.80;99.90;;;;;;10511762;28;20223;-76
2024/01/07 00:37:11;;;;;;;0.50;0.50;;;8.80;99.90;;;;;;10486575;28;20231;-77
2024/01/07 00:42:14;;;;;;;0.60;0.60;;;8.80;99.90;;;;;;10471686;28;20728;-77
2024/01/07 00:47:16;;;;;;;0.60;0.60;;;8.80;99.90;;;;;;10496125;28;20250;-77
2024/01/07 00:52:21;;;;;;;0.60;0.60;;;8.80;99.90;;;;;;10494976;28;20231;-77
2024/01/07 00:57:23;;;;;;;0.60;0.60;;;8.80;99.90;;;;;;10473154;28;20220;-77
2024/01/07 01:02:25;;;;;;;0.50;0.50;;;8.80;99.90;;;;;;10470082;28;20232;-78
2024/01/07 01:07:29;;;;;;;0.70;0.70;;;8.80;99.90;;;;;;10498264;28;20193;-77
2024/01/07 01:12:31;;;;;;;0.60;0.60;;;8.80;99.90;;;;;;10478027;28;20689;-77
2024/01/07 01:17:34;;;;;;;0.63;0.63;;;8.70;99.90;;;;;;10485619;28;20216;-77
2024/01/07 01:22:37;;;;;;;0.50;0.50;;;8.80;99.90;;;;;;10490683;28;20224;-76
2024/01/07 01:27:40;;;;;;;0.60;0.60;;;8.80;99.90;;;;;;10489653;28;20250;-77
2024/01/07 01:32:43;;;;;;;0.60;0.60;;;8.70;99.90;;;;;;10489830;28;20623;-77
2024/01/07 01:37:46;;;;;;;0.60;0.60;;;8.70;99.90;;;;;;10497545;28;20224;-77
2024/01/07 01:42:49;;;;;;;0.73;0.73;;;8.70;99.90;;;;;;10493159;28;20278;-76
2024/01/07 01:47:51;;;;;;;0.80;0.80;;;8.70;99.90;;;;;;10498457;28;20673;-77
2024/01/07 01:52:56;;;;;;;0.60;0.60;;;8.80;99.90;;;;;;10482904;28;20208;-77
2024/01/07 01:58:03;;;;;;;0.70;0.70;;;8.70;99.90;;;;;;10486163;28;20232;-76
2024/01/07 02:03:06;;;;;;;0.50;0.50;;;8.70;99.90;;;;;;10475741;28;20220;-77
2024/01/07 02:08:10;;;;;;;0.60;0.60;;;8.70;99.90;;;;;;10492398;28;20197;-78
2024/01/07 02:13:12;;;;;;;0.60;0.60;;;8.70;99.90;;;;;;10478489;28;20274;-76
2024/01/07 02:18:15;;;;;;;0.57;0.57;;;8.70;99.90;;;;;;10491317;28;20212;-76
2024/01/07 02:23:18;;;;;;;0.60;0.60;;;8.70;99.90;;;;;;10478996;28;20220;-77
2024/01/07 02:28:22;;;;;;;0.57;0.57;;;8.70;99.90;;;;;;10461035;28;20219;-78
2024/01/07 02:33:24;;;;;;;0.60;0.60;;;8.70;99.90;;;;;;10484503;28;20716;-78
2024/01/07 02:38:27;;;;;;;0.60;0.60;;;8.70;99.90;;;;;;10468136;28;20228;-77
2024/01/07 02:43:30;;;;;;;0.57;0.57;;;8.60;99.90;;;;;;10487201;28;20677;-77
2024/01/07 02:48:33;;;;;;;0.50;0.50;;;8.60;99.90;;;;;;10487600;28;20197;-77
2024/01/07 02:53:35;;;;;;;0.60;0.60;;;8.60;99.90;;;;;;10494936;28;20222;-77
2024/01/07 02:58:39;;;;;;;0.70;0.70;;;8.70;99.90;;;;;;10495533;28;20223;-77
2024/01/07 03:03:41;;;;;;;0.60;0.60;;;8.60;99.90;;;;;;10510916;28;20216;-77
2024/01/07 03:08:44;;;;;;;0.70;0.70;;;8.70;99.90;;;;;;10508651;28;20184;-77
2024/01/07 03:13:47;;;;;;;0.60;0.60;;;8.60;99.90;;;;;;10511425;28;20701;-77
2024/01/07 03:18:50;;;;;;;0.60;0.60;;;8.60;99.90;;;;;;10511894;28;20216;-76
2024/01/07 03:23:52;;;;;;;0.60;0.60;;;8.70;99.90;;;;;;10514753;28;20215;-77
2024/01/07 03:28:59;;;;;;;0.60;0.60;;;8.60;99.90;;;;;;10517120;28;20257;-77
2024/01/07 03:34:01;;;;;;;0.60;0.60;;;8.60;99.90;;;;;;10507868;28;20255;-77
2024/01/07 03:39:04;;;;;;;0.60;0.60;;;8.60;99.90;;;;;;10517309;28;20693;-77
2024/01/07 03:44:07;;;;;;;0.60;0.60;;;8.70;99.90;;;;;;10521202;28;20559;-77
2024/01/07 03:49:10;;;;;;;0.70;0.70;;;8.60;99.90;;;;;;10521741;28;20200;-77
2024/01/07 03:54:12;;;;;;;0.60;0.60;;;8.60;99.90;;;;;;10522452;28;20223;-76
2024/01/07 03:59:16;;;;;;;0.60;0.60;;;8.60;99.90;;;;;;10514208;28;20230;-77
2024/01/07 04:04:18;;;;;;;0.90;0.90;;;8.60;99.90;;;;;;10514117;28;20242;-77
2024/01/07 04:09:21;;;;;;;1.10;1.10;;;8.60;99.90;;;;;;10519386;28;20203;-77
2024/01/07 04:14:27;;;;;;;0.80;0.80;;;8.60;99.90;;;;;;10515334;28;20244;-77
2024/01/07 04:19:29;;;;;;;0.83;0.83;;;8.60;99.90;;;;;;10492884;28;20227;-77
2024/01/07 04:24:31;;;;;;;0.80;0.80;;;8.50;99.90;;;;;;10524139;28;20208;-77
2024/01/07 04:29:35;;;;;;;1.00;1.00;;;8.50;99.90;;;;;;10516578;28;20207;-78
2024/01/07 04:34:37;;;;;;;1.00;1.00;;;8.50;99.90;;;;;;10514901;28;20208;-78
2024/01/07 04:39:40;;;;;;;0.80;0.80;;;8.50;99.90;;;;;;10501159;28;20212;-78
2024/01/07 04:44:44;;;;;;;0.80;0.80;;;8.50;99.90;;;;;;10509305;28;20668;-77
2024/01/07 04:49:46;;;;;;;0.90;0.90;;;8.50;99.90;;;;;;10510426;28;20211;-77
2024/01/07 04:54:48;;;;;;;1.00;1.00;;;8.40;99.90;;;;;;10497674;28;20201;-77
2024/01/07 04:59:52;;;;;;;1.00;1.00;;;8.40;99.90;;;;;;10513640;28;20219;-77
2024/01/07 05:04:55;;;;;;;1.00;1.00;;;8.40;99.90;;;;;;10495051;28;20193;-76
2024/01/07 05:09:57;;;;;;;1.10;1.10;;;8.40;99.90;;;;;;10499932;28;20555;-77
2024/01/07 05:15:01;;;;;;;0.83;0.83;;;8.40;99.90;;;;;;10502554;28;20269;-77
2024/01/07 05:20:03;;;;;;;0.80;0.80;;;8.40;99.90;;;;;;10503771;28;20228;-76
2024/01/07 05:25:06;;;;;;;0.80;0.80;;;8.40;99.90;;;;;;10504071;28;20208;-77
2024/01/07 05:30:11;;;;;;;0.87;0.87;;;8.40;99.90;;;;;;10504647;28;20577;-77
2024/01/07 05:35:13;;;;;;;0.70;0.70;;;8.40;99.90;;;;;;10513839;28;20254;-76
2024/01/07 05:40:16;;;;;;;0.80;0.80;;;8.40;99.90;;;;;;10505023;28;20216;-77
2024/01/07 05:45:20;;;;;;;1.00;1.00;;;8.40;99.90;;;;;;10505430;28;20192;-76
2024/01/07 05:50:22;;;;;;;0.80;0.80;;;8.40;99.90;;;;;;10496229;28;20216;-78
2024/01/07 05:55:24;;;;;;;0.87;0.87;;;8.30;99.90;;;;;;10506317;28;20195;-77
2024/01/07 06:00:28;;;;;;;0.77;0.77;;;8.30;99.90;;;;;;10498448;28;20232;-76
2024/01/07 06:05:30;;;;;;;1.10;1.10;;;8.30;99.90;;;;;;10491216;28;20209;-78
2024/01/07 06:10:33;;;;;;;0.83;0.83;;;8.30;99.90;;;;;;10499228;28;20227;-77
2024/01/07 06:15:36;;;;;;;0.70;0.70;;;8.20;99.90;;;;;;10499717;28;20301;-77
2024/01/07 06:20:39;;;;;;;0.80;0.80;;;8.20;99.90;;;;;;10500331;28;20719;-77
2024/01/07 06:25:41;;;;;;;0.80;0.80;;;8.20;99.90;;;;;;10500415;28;20664;-77
2024/01/07 06:30:45;;;;;;;0.90;0.90;;;8.20;99.90;;;;;;10501148;28;20223;-77
2024/01/07 06:35:47;;;;;;;0.70;0.70;;;8.20;99.90;;;;;;10493734;28;20207;-77
2024/01/07 06:40:50;;;;;;;1.10;1.10;;;8.30;99.90;;;;;;10502134;28;20257;-77
2024/01/07 06:45:53;;;;;;;0.90;0.90;;;8.30;99.90;;;;;;10503211;28;20200;-77
2024/01/07 06:50:56;;;;;;;0.90;0.90;;;8.30;99.90;;;;;;10502957;28;20238;-78
2024/01/07 06:55:58;;;;;;;0.90;0.90;;;8.30;99.90;;;;;;10503308;28;20195;-77
2024/01/07 07:01:02;;;;;;;0.80;0.80;;;8.30;99.90;;;;;;10500844;28;20233;-77
2024/01/07 07:06:05;;;;;;;0.90;0.90;;;8.30;99.90;;;;;;10494100;28;20208;-77
2024/01/07 07:11:07;;;;;;;0.90;0.90;;;8.30;99.90;;;;;;10522615;28;20212;-77
2024/01/07 07:16:11;;;;;;;1.00;1.00;;;8.20;99.90;;;;;;10496651;28;20222;-77
2024/01/07 07:21:14;;;;;;;0.80;0.80;;;8.30;99.90;;;;;;10497244;28;20280;-77
2024/01/07 07:26:16;;;;;;;0.80;0.80;;;8.20;99.90;;;;;;10496922;28;20207;-78
2024/01/07 07:31:20;;;;;;;0.80;0.80;;;8.20;99.90;;;;;;10524303;28;20231;-77
2024/01/07 07:36:23;;;;;;;0.77;0.77;;;8.10;99.90;;;;;;10497779;28;20727;-77
2024/01/07 07:41:26;;;;;;;0.83;0.83;;;8.00;99.90;;;;;;10494372;28;20232;-77
2024/01/07 07:46:29;;;;;;;0.90;0.90;;;8.00;99.90;;;;;;10497704;28;20204;-76
2024/01/07 07:51:32;;;;;;;0.97;0.97;;;8.00;99.90;;;;;;10522185;28;20441;-77
2024/01/07 07:56:35;;;;;;;0.80;0.80;;;8.00;99.90;;;;;;10498689;28;20203;-76
2024/01/07 08:01:39;;;;;;;0.90;0.90;;;7.90;99.90;;;;;;10503958;28;20236;-78
2024/01/07 08:06:42;;;;;;;0.70;0.70;;;7.90;99.90;;;;;;10493136;28;20538;-77
2024/01/07 08:11:44;;;;;;;0.60;0.60;;;7.80;99.90;;;;;;10491068;28;20223;-77
2024/01/07 08:16:48;;;;;;;0.93;0.93;;;7.90;99.90;;;;;;10492000;28;20203;-76
2024/01/07 08:21:50;;;;;;;0.70;0.70;;;7.90;99.90;;;;;;10492388;28;20235;-76
2024/01/07 08:26:53;;;;;;;0.70;0.70;;;7.80;99.90;;;;;;10492110;28;20612;-75
2024/01/07 08:31:56;;;;;;;0.40;0.40;;;7.80;99.90;;;;;;10492756;28;20234;-77
2024/01/07 08:36:59;;;;;;;0.50;0.50;;;7.80;99.90;;;;;;10499812;28;20665;-76
2024/01/07 08:42:01;;;;;;;0.40;0.40;;;7.80;99.90;;;;;;10488012;28;20302;-76
2024/01/07 08:47:05;;;;;;;0.57;0.57;;;7.80;99.80;;;;;;10528730;28;20708;-76
2024/01/07 08:52:08;;;;;;;0.50;0.50;;;7.70;99.30;;;;;;10495316;28;20600;-77
2024/01/07 08:57:10;;;;;;;0.50;0.50;;;7.70;99.00;;;;;;10495233;28;20204;-77
2024/01/07 09:02:14;;;;;;;0.50;0.50;;;7.50;99.50;;;;;;10506187;28;20244;-77
2024/01/07 09:07:17;;;;;;;0.50;0.50;;;7.60;99.90;;;;;;10517724;28;20196;-77
2024/01/07 09:12:20;;;;;;;0.40;0.40;;;7.60;99.00;;;;;;10481956;28;20334;-77
2024/01/07 09:17:23;;;;;;;0.60;0.60;;;7.50;99.60;;;;;;10491309;28;20204;-76
2024/01/07 09:22:26;;;;;;;0.60;0.60;;;7.50;99.90;;;;;;10488744;28;20217;-76
2024/01/07 09:27:28;;;;;;;0.40;0.40;;;7.60;99.00;;;;;;10490339;28;20614;-75
2024/01/07 09:32:32;;;;;;;0.50;0.50;;;7.60;99.00;;;;;;10527723;28;20615;-76
2024/01/07 09:37:37;;;;;;;0.40;0.40;;;7.60;98.70;;;;;;10492372;28;20196;-76
2024/01/07 09:42:40;;;;;;;0.50;0.50;;;7.60;97.50;;;;;;10517983;28;20620;-78
2024/01/07 09:47:46;;;;;;;0.47;0.47;;;7.60;97.60;;;;;;10483785;28;20213;-75
2024/01/07 09:52:49;;;;;;;0.30;0.30;;;7.50;97.30;;;;;;10493234;28;20228;-76
2024/01/07 09:57:52;;;;;;;0.30;0.30;;;7.40;98.20;;;;;;10478269;28;20193;-76
2024/01/07 10:02:55;;;;;;;0.40;0.40;;;7.40;97.50;;;;;;10482540;28;20217;-75
2024/01/07 10:07:58;;;;;;;0.50;0.50;;;7.50;98.00;;;;;;10492758;28;20307;-79
2024/01/07 10:13:00;;;;;;;0.40;0.40;;;7.60;96.40;;;;;;10489530;28;20229;-79
2024/01/07 10:18:06;;;;;;;0.47;0.47;;;7.50;97.10;;;;;;10485039;28;20208;-77
2024/01/07 10:23:09;;;;;;;0.50;0.50;;;7.50;96.40;;;;;;10503807;28;20221;-74
2024/01/07 10:28:12;;;;;;;0.53;0.53;;;7.50;96.80;;;;;;10487609;28;20249;-77
2024/01/07 10:33:18;;;;;;;0.40;0.40;;;7.40;96.00;;;;;;10494926;28;20216;-77
2024/01/07 10:38:21;;;;;;;0.60;0.60;;;7.40;96.60;;;;;;10494846;28;20727;-78
2024/01/07 10:43:27;;;;;;;0.50;0.50;;;7.40;96.70;;;;;;10497631;28;20216;-78
2024/01/07 10:48:32;;;;;;;0.60;0.60;;;7.40;96.30;;;;;;10497140;28;20877;-78
2024/01/07 10:53:38;;;;;;;0.40;0.40;;;7.30;96.10;;;;;;10521963;28;20220;-78
2024/01/07 10:58:42;;;;;;;0.50;0.50;;;7.20;95.60;;;;;;10511631;28;20242;-77
2024/01/07 11:03:52;;;;;;;0.60;0.60;;;7.20;96.00;;;;;;10503806;28;20759;-77
2024/01/07 11:08:59;;;;;;;0.53;0.53;;;7.10;95.80;;;;;;10519444;28;20256;-77
2024/01/07 11:14:02;;;;;;;0.50;0.50;;;7.10;95.40;;;;;;10492097;28;20221;-78
2024/01/07 11:19:06;;;;;;;0.50;0.50;;;7.00;96.40;;;;;;10526769;28;20216;-77
2024/01/07 11:24:08;;;;;;;0.50;0.50;;;7.00;96.40;;;;;;10527343;28;20216;-76
2024/01/07 11:29:12;;;;;;;0.60;0.60;;;7.10;95.90;;;;;;10527346;28;20197;-77
2024/01/07 11:34:43;;;;;;;0.50;0.50;;;7.10;95.10;;;;;;10521099;28;20231;-77
2024/01/07 11:39:51;;;;;;;0.40;0.40;;;7.00;95.60;;;;;;10503553;28;20249;-77
2024/01/07 11:44:55;;;;;;;0.50;0.50;;;7.10;95.90;;;;;;10501967;28;20192;-77
2024/01/07 11:49:59;;;;;;;0.60;0.60;;;7.10;96.10;;;;;;10501189;28;20203;-77
2024/01/07 11:55:02;;;;;;;0.50;0.50;;;7.20;95.60;;;;;;10519499;28;20208;-77
2024/01/07 12:00:06;;;;;;;0.60;0.60;;;7.10;95.10;;;;;;10507742;28;20246;-78
2024/01/07 12:05:16;;;;;;;0.57;0.57;;;7.10;95.20;;;;;;10510450;28;20211;-78
2024/01/07 12:10:18;;;;;;;0.60;0.60;;;7.00;95.20;;;;;;10484852;28;20220;-78
2024/01/07 12:15:23;;;;;;;0.57;0.57;;;7.00;95.50;;;;;;10499726;28;20226;-78
2024/01/07 12:20:28;;;;;;;0.40;0.40;;;7.00;96.00;;;;;;10496530;28;20225;-78
2024/01/07 12:25:30;;;;;;;0.60;0.60;;;7.00;95.60;;;;;;10500497;28;20614;-77
2024/01/07 12:30:33;;;;;;;0.50;0.50;;;7.00;95.20;;;;;;10481485;28;20213;-77
2024/01/07 12:35:36;;;;;;;0.50;0.50;;;7.00;95.00;;;;;;10498292;28;20205;-77
2024/01/07 12:40:39;;;;;;;0.40;0.40;;;6.90;94.90;;;;;;10506007;28;20285;-77
2024/01/07 12:45:41;;;;;;;0.60;0.60;;;7.00;94.70;;;;;;10501627;28;20236;-77
2024/01/07 12:50:45;;;;;;;0.60;0.60;;;6.90;94.90;;;;;;10506282;28;20269;-77
2024/01/07 12:55:47;;;;;;;0.43;0.43;;;6.80;95.30;;;;;;10512350;28;20219;-78
2024/01/07 13:00:50;;;;;;;0.50;0.50;;;6.80;95.50;;;;;;10505509;28;20223;-77
2024/01/07 13:05:54;;;;;;;0.53;0.53;;;6.80;94.60;;;;;;10502424;28;20205;-77
2024/01/07 13:10:56;;;;;;;0.50;0.50;;;6.70;94.90;;;;;;10478186;28;20212;-77
2024/01/07 13:16:01;;;;;;;0.60;0.60;;;6.70;95.00;;;;;;10495398;28;20816;-77
2024/01/07 13:21:06;;;;;;;0.47;0.47;;;6.60;94.80;;;;;;10500620;28;20786;-77
2024/01/07 13:26:10;;;;;;;0.60;0.60;;;6.50;94.40;;;;;;10504482;28;20192;-77
2024/01/07 13:31:13;;;;;;;0.50;0.50;;;6.40;95.10;;;;;;10512794;28;20281;-77
2024/01/07 13:36:17;;;;;;;0.50;0.50;;;6.40;95.60;;;;;;10489080;28;20192;-77
2024/01/07 13:41:19;;;;;;;0.50;0.50;;;6.40;95.20;;;;;;10497505;28;20289;-78
2024/01/07 13:46:23;;;;;;;0.70;0.70;;;6.40;95.40;;;;;;10509209;28;20200;-77
2024/01/07 13:51:27;;;;;;;0.50;0.50;;;6.40;94.40;;;;;;10493017;28;20212;-76
2024/01/07 13:56:29;;;;;;;0.50;0.50;;;6.40;94.90;;;;;;10498821;28;20254;-76
2024/01/07 14:01:32;;;;;;;0.40;0.40;;;6.30;94.90;;;;;;10506014;28;20220;-77
2024/01/07 14:06:36;;;;;;;0.40;0.40;;;6.30;95.10;;;;;;10499346;28;20208;-76
2024/01/07 14:11:38;;;;;;;0.40;0.40;;;6.30;94.60;;;;;;10501106;28;20221;-77
2024/01/07 14:16:41;;;;;;;0.50;0.50;;;6.20;94.80;;;;;;10499496;28;20204;-77
2024/01/07 14:21:45;;;;;;;0.50;0.50;;;6.20;94.00;;;;;;10494677;28;20223;-77
2024/01/07 14:26:47;;;;;;;0.50;0.50;;;6.20;94.40;;;;;;10509251;28;20598;-75
2024/01/07 14:31:49;;;;;;;0.50;0.50;;;6.10;94.50;;;;;;10501094;28;20319;-76
2024/01/07 14:36:53;;;;;;;0.80;0.80;;;6.10;94.90;;;;;;10492795;28;20196;-77
2024/01/07 14:41:55;;;;;;;0.60;0.60;;;6.10;95.60;;;;;;10504282;28;20682;-76
2024/01/07 14:46:58;;;;;;;0.60;0.60;;;6.00;95.10;;;;;;10492095;28;20444;-76
2024/01/07 14:52:01;;;;;;;0.50;0.50;;;5.90;96.20;;;;;;10505231;28;20221;-76
2024/01/07 14:57:04;;;;;;;0.80;0.80;;;5.80;97.30;;;;;;10492036;28;20693;-76
2024/01/07 15:02:07;;;;;;;0.87;0.87;;;5.80;96.70;;;;;;10491868;28;20228;-76
2024/01/07 15:07:10;;;;;;;0.90;0.90;;;5.70;96.60;;;;;;10471183;28;20653;-77
2024/01/07 15:12:13;;;;;;;0.60;0.60;;;5.60;95.90;;;;;;10496836;28;20223;-75
2024/01/07 15:17:18;;;;;;;0.80;0.80;;;5.50;96.70;;;;;;10487121;28;20669;-75
2024/01/07 15:22:21;;;;;;;0.80;0.80;;;5.50;97.10;;;;;;10501602;28;20374;-76
2024/01/07 15:27:24;;;;;;;0.80;0.80;;;5.50;96.80;;;;;;10495228;28;20204;-78
2024/01/07 15:32:27;;;;;;;0.80;0.80;;;5.50;96.40;;;;;;10506437;28;20254;-77
2024/01/07 15:37:31;;;;;;;0.77;0.77;;;5.50;96.70;;;;;;10479538;28;20654;-76
2024/01/07 15:42:33;;;;;;;0.80;0.80;;;5.40;96.60;;;;;;10505178;28;20224;-76
2024/01/07 15:47:36;;;;;;;0.70;0.70;;;5.30;97.70;;;;;;10482211;28;20197;-77
2024/01/07 15:52:40;;;;;;;0.93;0.93;;;5.20;98.30;;;;;;10499340;28;20216;-77
2024/01/07 15:57:44;;;;;;;0.80;0.80;;;5.10;98.50;;;;;;10503880;28;20192;-77
2024/01/07 16:02:46;;;;;;;0.80;0.80;;;5.10;98.90;;;;;;10492838;28;20216;-77
2024/01/07 16:07:51;;;;;;;0.80;0.80;;;5.00;99.10;;;;;;10490210;28;20196;-74
2024/01/07 16:12:54;;;;;;;0.70;0.70;;;5.00;99.30;;;;;;10490692;28;20221;-80
2024/01/07 16:17:57;;;;;;;0.80;0.80;;;4.90;99.20;;;;;;10495532;28;20184;-79
2024/01/07 16:23:01;;;;;;;0.90;0.90;;;4.90;99.20;;;;;;10478914;28;20240;-81
2024/01/07 16:28:04;;;;;;;0.90;0.90;;;4.90;99.10;;;;;;10493116;28;20192;-79
2024/01/07 16:33:06;;;;;;;0.70;0.70;;;4.80;99.70;;;;;;10503109;28;20224;-79
2024/01/07 16:38:10;;;;;;;0.60;0.60;;;4.80;99.80;;;;;;10507241;28;20212;-79
2024/01/07 16:43:13;;;;;;;0.63;0.63;;;4.80;99.80;;;;;;10498393;28;20250;-78
2024/01/07 16:48:15;;;;;;;0.63;0.63;;;4.70;99.40;;;;;;10489396;28;20204;-79
2024/01/07 16:53:21;;;;;;;0.60;0.60;;;4.70;99.80;;;;;;10500991;28;20759;-80
2024/01/07 16:58:23;;;;;;;0.57;0.57;;;4.60;99.60;;;;;;10508608;28;20200;-80
2024/01/07 17:03:25;;;;;;;0.60;0.60;;;4.60;99.90;;;;;;10490582;28;20282;-79
2024/01/07 17:08:29;;;;;;;0.63;0.63;;;4.50;98.90;;;;;;10497637;28;20207;-79
2024/01/07 17:13:32;;;;;;;0.60;0.60;;;4.40;99.20;;;;;;10483864;28;20219;-79
2024/01/07 17:18:34;;;;;;;0.80;0.80;;;4.40;99.90;;;;;;10513105;28;20199;-79
2024/01/07 17:23:38;;;;;;;0.60;0.60;;;4.30;99.90;;;;;;10495542;28;20697;-78
2024/01/07 17:28:41;;;;;;;0.70;0.70;;;4.30;99.90;;;;;;10490421;28;20745;-78
2024/01/07 17:33:44;;;;;;;0.50;0.50;;;4.30;99.90;;;;;;10507232;28;20220;-75
2024/01/07 17:38:48;;;;;;;0.50;0.50;;;4.30;99.90;;;;;;10498002;28;20211;-76
2024/01/07 17:43:50;;;;;;;0.50;0.50;;;4.30;99.90;;;;;;10502791;28;20251;-77
2024/01/07 17:48:54;;;;;;;0.60;0.60;;;4.30;99.90;;;;;;10503255;28;20204;-77
2024/01/07 17:53:58;;;;;;;0.50;0.50;;;4.20;99.90;;;;;;10504000;28;20274;-76
2024/01/07 17:59:01;;;;;;;0.60;0.60;;;4.30;99.90;;;;;;10493777;28;20212;-78
2024/01/07 18:04:04;;;;;;;0.60;0.60;;;4.30;99.90;;;;;;10499908;28;20219;-78
2024/01/07 18:09:10;;;;;;;0.73;0.73;;;4.30;99.90;;;;;;10490158;28;20564;-78
2024/01/07 18:14:14;;;;;;;0.40;0.40;;;4.30;99.40;;;;;;10494116;28;20208;-77
2024/01/07 18:19:16;;;;;;;0.50;0.50;;;4.20;99.70;;;;;;10494015;28;20593;-75
2024/01/07 18:24:20;;;;;;;0.57;0.57;;;4.20;99.80;;;;;;10479647;28;20216;-76
2024/01/07 18:29:22;;;;;;;0.50;0.50;;;4.20;99.80;;;;;;10477298;28;20686;-78
2024/01/07 18:34:25;;;;;;;0.50;0.50;;;4.20;99.60;;;;;;10483935;28;20266;-78
2024/01/07 18:39:28;;;;;;;0.70;0.70;;;4.20;99.30;;;;;;10495040;28;20212;-79
2024/01/07 18:44:31;;;;;;;0.50;0.50;;;4.20;99.20;;;;;;10486330;28;20698;-80
2024/01/07 18:49:33;;;;;;;0.60;0.60;;;4.20;98.90;;;;;;10491971;28;20705;-80
2024/01/07 18:54:42;;;;;;;0.60;0.60;;;4.20;99.40;;;;;;10501916;28;20334;-78
2024/01/07 18:59:44;;;;;;;0.60;0.60;;;4.20;98.90;;;;;;10506338;28;20753;-78
2024/01/07 19:04:46;;;;;;;0.40;0.40;;;4.10;97.20;;;;;;10503842;28;20751;-78
2024/01/07 19:09:50;;;;;;;0.60;0.60;;;4.00;97.90;;;;;;10514654;28;20265;-79
2024/01/07 19:14:52;;;;;;;0.50;0.50;;;4.00;98.20;;;;;;10519519;28;20212;-79
2024/01/07 19:19:55;;;;;;;0.60;0.60;;;4.00;97.90;;;;;;10495142;28;20911;-78
2024/01/07 19:24:58;;;;;;;0.50;0.50;;;3.90;98.10;;;;;;10517843;28;20220;-79
2024/01/07 19:30:01;;;;;;;0.60;0.60;;;3.90;97.90;;;;;;10504748;28;20233;-80
2024/01/07 19:35:05;;;;;;;0.43;0.43;;;3.90;97.80;;;;;;10497605;28;20887;-80
2024/01/07 19:40:10;;;;;;;0.50;0.50;;;3.90;97.20;;;;;;10490381;28;20221;-79
2024/01/07 19:45:13;;;;;;;0.50;0.50;;;3.90;96.80;;;;;;10500253;28;20618;-80
2024/01/07 19:50:16;;;;;;;0.50;0.50;;;3.80;96.00;;;;;;10509359;28;20224;-79
2024/01/07 19:55:19;;;;;;;0.50;0.50;;;3.80;96.60;;;;;;10477590;28;20208;-80
2024/01/07 20:00:22;;;;;;;0.43;0.43;;;3.70;96.90;;;;;;10492362;28;20290;-81
2024/01/07 20:05:25;;;;;;;0.40;0.40;;;3.70;96.60;;;;;;10495355;28;20220;-78
2024/01/07 20:10:29;;;;;;;0.60;0.60;;;3.60;97.00;;;;;;10521970;28;20228;-81
2024/01/07 20:15:33;;;;;;;0.60;0.60;;;3.50;97.50;;;;;;10503058;28;20196;-79
2024/01/07 20:20:36;;;;;;;0.50;0.50;;;3.50;97.60;;;;;;10494497;28;20242;-80
2024/01/07 20:25:40;;;;;;;0.60;0.60;;;3.50;97.10;;;;;;10500653;28;20224;-78
2024/01/07 20:30:42;;;;;;;0.60;0.60;;;3.40;97.50;;;;;;10511766;28;20258;-80
2024/01/07 20:35:44;;;;;;;0.40;0.40;;;3.50;96.90;;;;;;10471528;28;20196;-79
2024/01/07 20:40:48;;;;;;;0.50;0.50;;;3.40;97.30;;;;;;10499773;28;20227;-78
2024/01/07 20:45:51;;;;;;;0.50;0.50;;;3.40;97.20;;;;;;10476391;28;20208;-77
2024/01/07 20:50:54;;;;;;;0.50;0.50;;;3.40;97.40;;;;;;10502569;28;20221;-78
2024/01/07 20:56:00;;;;;;;0.50;0.50;;;3.40;97.40;;;;;;10519464;28;20250;-78
2024/01/07 21:01:02;;;;;;;0.50;0.50;;;3.30;97.40;;;;;;10488543;28;20221;-78
2024/01/07 21:06:05;;;;;;;0.40;0.40;;;3.30;96.70;;;;;;10478278;28;20236;-79
2024/01/07 21:11:08;;;;;;;0.43;0.43;;;3.20;96.90;;;;;;10493514;28;20220;-78
2024/01/07 21:16:12;;;;;;;0.50;0.50;;;3.20;97.20;;;;;;10491102;28;20255;-79
2024/01/07 21:21:15;;;;;;;0.40;0.40;;;3.20;97.30;;;;;;10489148;28;20574;-80
2024/01/07 21:26:19;;;;;;;0.50;0.50;;;3.10;97.70;;;;;;10490495;28;20518;-81
2024/01/07 21:31:21;;;;;;;0.40;0.40;;;3.10;97.60;;;;;;10483566;28;20581;-80
2024/01/07 21:36:28;;;;;;;0.33;0.33;;;3.10;97.70;;;;;;10494079;28;20204;-80
2024/01/07 21:41:31;;;;;;;0.40;0.40;;;3.10;97.70;;;;;;10511539;22;20224;-75
2024/01/07 21:46:36;;;;;;;0.50;0.50;;;3.00;97.40;;;;;;10490822;28;20609;-77
2024/01/07 21:51:38;;;;;;;0.50;0.50;;;3.00;97.60;;;;;;10456811;28;20279;-77
2024/01/07 21:56:42;;;;;;;0.30;0.30;;;3.00;97.70;;;;;;10462373;28;20263;-74
2024/01/07 22:01:44;;;;;;;0.40;0.40;;;3.00;97.40;;;;;;10438128;28;20231;-78
2024/01/07 22:06:47;;;;;;;0.50;0.50;;;3.00;97.00;;;;;;10438483;28;20205;-77
2024/01/07 22:11:50;;;;;;;0.50;0.50;;;3.00;97.30;;;;;;10460174;28;20298;-76
2024/01/07 22:16:53;;;;;;;0.40;0.40;;;2.90;97.40;;;;;;10470280;28;20224;-77
2024/01/07 22:21:55;;;;;;;0.40;0.40;;;3.00;97.10;;;;;;10447287;28;20216;-77
2024/01/07 22:26:59;;;;;;;0.40;0.40;;;3.00;97.00;;;;;;10436606;28;20201;-76
2024/01/07 22:32:02;;;;;;;0.40;0.40;;;3.00;96.90;;;;;;10462398;28;21126;-77
2024/01/07 22:37:05;;;;;;;0.40;0.40;;;3.00;97.10;;;;;;10445385;28;20208;-77
2024/01/07 22:42:09;;;;;;;0.60;0.60;;;3.00;97.20;;;;;;10450263;28;20670;-77
2024/01/07 22:47:11;;;;;;;0.60;0.60;;;3.00;97.10;;;;;;10464095;28;20201;-77
2024/01/07 22:52:14;;;;;;;0.50;0.50;;;3.00;96.90;;;;;;10459713;28;20275;-77
2024/01/07 22:57:20;;;;;;;0.43;0.43;;;3.00;97.20;;;;;;10467728;28;20197;-76
2024/01/07 23:02:22;;;;;;;0.50;0.50;;;3.00;97.40;;;;;;10459765;28;20247;-77
2024/01/07 23:07:24;;;;;;;0.43;0.43;;;3.00;97.30;;;;;;10438310;28;20202;-75
2024/01/07 23:12:28;;;;;;;0.50;0.50;;;3.10;97.20;;;;;;10463567;28;20221;-77
2024/01/07 23:17:31;;;;;;;0.40;0.40;;;3.10;97.10;;;;;;10431682;28;20205;-77
2024/01/07 23:22:33;;;;;;;0.50;0.50;;;3.10;97.40;;;;;;10439596;28;20283;-76
2024/01/07 23:27:39;;;;;;;0.50;0.50;;;3.10;96.80;;;;;;10455983;28;20216;-77
2024/01/07 23:32:41;;;;;;;0.40;0.40;;;3.10;96.60;;;;;;10461991;28;20651;-76
2024/01/07 23:37:43;;;;;;;0.60;0.60;;;3.10;96.10;;;;;;10445881;28;20197;-76
2024/01/07 23:42:48;;;;;;;0.50;0.50;;;3.10;96.20;;;;;;10404821;28;20582;-77
2024/01/07 23:47:50;;;;;;;0.53;0.53;;;3.10;96.40;;;;;;10455147;28;20201;-76
2024/01/07 23:52:53;;;;;;;0.50;0.50;;;3.20;94.20;;;;;;10442602;28;20220;-76
2024/01/07 23:57:56;;;;;;;0.50;0.50;;;3.20;94.60;;;;;;10385151;28;20248;-76
